sensor_id;sensor_type;location;lat;lon;timestamp;P1;durP1;ratioP1;P2;durP2;ratioP2
33327;SDS011;19692;52.998;9.116;2022-07-12T00:01:53;5.90;;;5.40;;
33327;SDS011;19692;52.998;9.116;2022-07-12T00:04:18;6.00;;;5.30;;
33327;SDS011;19692;52.998;9.116;2022-07-12T00:06:44;6.43;;;5.40;;
33327;SDS011;19692;52.998;9.116;2022-07-12T00:09:10;6.00;;;5.50;;
33327;SDS011;19692;52.998;9.116;2022-07-12T00:11:36;5.80;;;5.30;;
33327;SDS011;19692;52.998;9.116;2022-07-12T00:14:02;6.33;;;5.73;;
33327;SDS011;19692;52.998;9.116;2022-07-12T00:16:29;5.80;;;5.20;;
33327;SDS011;19692;52.998;9.116;2022-07-12T00:18:55;5.90;;;5.30;;
33327;SDS011;19692;52.998;9.116;2022-07-12T00:21:22;5.73;;;5.23;;
33327;SDS011;19692;52.998;9.116;2022-07-12T00:23:48;6.40;;;5.80;;
33327;SDS011;19692;52.998;9.116;2022-07-12T00:26:13;8.13;;;5.53;;
33327;SDS011;19692;52.998;9.116;2022-07-12T00:28:39;5.50;;;5.00;;
33327;SDS011;19692;52.998;9.116;2022-07-12T00:31:05;7.87;;;4.80;;
33327;SDS011;19692;52.998;9.116;2022-07-12T00:33:31;6.37;;;5.50;;
33327;SDS011;19692;52.998;9.116;2022-07-12T00:35:57;5.13;;;4.73;;
33327;SDS011;19692;52.998;9.116;2022-07-12T00:38:22;6.53;;;5.30;;
33327;SDS011;19692;52.998;9.116;2022-07-12T00:40:48;6.20;;;5.60;;
33327;SDS011;19692;52.998;9.116;2022-07-12T00:43:15;6.13;;;5.50;;
33327;SDS011;19692;52.998;9.116;2022-07-12T00:45:41;5.60;;;5.10;;
33327;SDS011;19692;52.998;9.116;2022-07-12T00:48:07;16.17;;;6.20;;
33327;SDS011;19692;52.998;9.116;2022-07-12T00:50:33;6.37;;;5.77;;
33327;SDS011;19692;52.998;9.116;2022-07-12T00:52:59;6.70;;;6.10;;
33327;SDS011;19692;52.998;9.116;2022-07-12T00:55:25;6.63;;;5.80;;
33327;SDS011;19692;52.998;9.116;2022-07-12T00:57:51;7.00;;;5.97;;
33327;SDS011;19692;52.998;9.116;2022-07-12T01:00:29;7.03;;;6.43;;
33327;SDS011;19692;52.998;9.116;2022-07-12T01:02:56;5.97;;;5.37;;
33327;SDS011;19692;52.998;9.116;2022-07-12T01:05:26;6.50;;;5.90;;
33327;SDS011;19692;52.998;9.116;2022-07-12T01:07:53;7.07;;;6.40;;
33327;SDS011;19692;52.998;9.116;2022-07-12T01:10:20;6.47;;;5.87;;
33327;SDS011;19692;52.998;9.116;2022-07-12T01:12:45;7.07;;;6.37;;
33327;SDS011;19692;52.998;9.116;2022-07-12T01:15:11;6.47;;;5.87;;
33327;SDS011;19692;52.998;9.116;2022-07-12T01:17:37;6.93;;;5.73;;
33327;SDS011;19692;52.998;9.116;2022-07-12T01:20:04;7.20;;;6.50;;
33327;SDS011;19692;52.998;9.116;2022-07-12T01:22:32;6.17;;;5.63;;
33327;SDS011;19692;52.998;9.116;2022-07-12T01:25:01;6.23;;;5.63;;
33327;SDS011;19692;52.998;9.116;2022-07-12T01:27:29;6.00;;;5.50;;
33327;SDS011;19692;52.998;9.116;2022-07-12T01:29:55;5.77;;;5.20;;
33327;SDS011;19692;52.998;9.116;2022-07-12T01:32:21;6.33;;;5.73;;
33327;SDS011;19692;52.998;9.116;2022-07-12T01:34:57;6.27;;;5.73;;
33327;SDS011;19692;52.998;9.116;2022-07-12T01:37:25;6.03;;;5.40;;
33327;SDS011;19692;52.998;9.116;2022-07-12T01:39:56;5.60;;;5.10;;
33327;SDS011;19692;52.998;9.116;2022-07-12T01:42:24;5.37;;;4.87;;
33327;SDS011;19692;52.998;9.116;2022-07-12T01:44:52;5.53;;;4.97;;
33327;SDS011;19692;52.998;9.116;2022-07-12T01:47:19;5.40;;;4.90;;
33327;SDS011;19692;52.998;9.116;2022-07-12T01:49:47;5.60;;;5.10;;
33327;SDS011;19692;52.998;9.116;2022-07-12T01:52:13;5.00;;;4.60;;
33327;SDS011;19692;52.998;9.116;2022-07-12T01:54:39;5.77;;;5.27;;
33327;SDS011;19692;52.998;9.116;2022-07-12T01:57:07;5.83;;;4.80;;
33327;SDS011;19692;52.998;9.116;2022-07-12T01:59:33;6.20;;;5.63;;
33327;SDS011;19692;52.998;9.116;2022-07-12T02:01:59;6.43;;;5.20;;
33327;SDS011;19692;52.998;9.116;2022-07-12T02:04:26;5.67;;;5.17;;
33327;SDS011;19692;52.998;9.116;2022-07-12T02:06:53;5.70;;;5.20;;
33327;SDS011;19692;52.998;9.116;2022-07-12T02:09:20;6.33;;;5.50;;
33327;SDS011;19692;52.998;9.116;2022-07-12T02:11:46;6.17;;;5.57;;
33327;SDS011;19692;52.998;9.116;2022-07-12T02:14:14;7.03;;;6.33;;
33327;SDS011;19692;52.998;9.116;2022-07-12T02:16:41;7.33;;;6.07;;
33327;SDS011;19692;52.998;9.116;2022-07-12T02:19:08;6.40;;;5.80;;
33327;SDS011;19692;52.998;9.116;2022-07-12T02:21:35;6.20;;;5.60;;
33327;SDS011;19692;52.998;9.116;2022-07-12T02:24:01;5.77;;;5.27;;
33327;SDS011;19692;52.998;9.116;2022-07-12T02:26:28;6.73;;;6.03;;
33327;SDS011;19692;52.998;9.116;2022-07-12T02:28:54;5.97;;;5.10;;
33327;SDS011;19692;52.998;9.116;2022-07-12T02:31:19;6.53;;;5.67;;
33327;SDS011;19692;52.998;9.116;2022-07-12T02:33:45;6.23;;;5.50;;
33327;SDS011;19692;52.998;9.116;2022-07-12T02:36:11;5.77;;;5.07;;
33327;SDS011;19692;52.998;9.116;2022-07-12T02:38:37;6.03;;;5.43;;
33327;SDS011;19692;52.998;9.116;2022-07-12T02:41:03;6.10;;;5.33;;
33327;SDS011;19692;52.998;9.116;2022-07-12T02:43:29;5.87;;;5.30;;
33327;SDS011;19692;52.998;9.116;2022-07-12T02:46:06;6.30;;;5.70;;
33327;SDS011;19692;52.998;9.116;2022-07-12T02:48:35;6.80;;;5.90;;
33327;SDS011;19692;52.998;9.116;2022-07-12T02:51:01;6.30;;;5.40;;
33327;SDS011;19692;52.998;9.116;2022-07-12T02:53:29;5.03;;;4.60;;
33327;SDS011;19692;52.998;9.116;2022-07-12T02:55:56;5.70;;;5.20;;
33327;SDS011;19692;52.998;9.116;2022-07-12T02:58:22;6.30;;;5.70;;
33327;SDS011;19692;52.998;9.116;2022-07-12T03:00:47;7.27;;;6.57;;
33327;SDS011;19692;52.998;9.116;2022-07-12T03:03:14;7.47;;;5.83;;
33327;SDS011;19692;52.998;9.116;2022-07-12T03:05:40;7.00;;;6.30;;
33327;SDS011;19692;52.998;9.116;2022-07-12T03:08:07;7.07;;;6.17;;
33327;SDS011;19692;52.998;9.116;2022-07-12T03:10:34;7.00;;;6.30;;
33327;SDS011;19692;52.998;9.116;2022-07-12T03:13:00;7.87;;;6.63;;
33327;SDS011;19692;52.998;9.116;2022-07-12T03:15:26;7.40;;;6.70;;
33327;SDS011;19692;52.998;9.116;2022-07-12T03:17:53;8.80;;;7.27;;
33327;SDS011;19692;52.998;9.116;2022-07-12T03:20:20;8.47;;;7.40;;
33327;SDS011;19692;52.998;9.116;2022-07-12T03:22:46;7.60;;;6.90;;
33327;SDS011;19692;52.998;9.116;2022-07-12T03:25:14;7.83;;;7.03;;
33327;SDS011;19692;52.998;9.116;2022-07-12T03:27:40;9.03;;;6.80;;
33327;SDS011;19692;52.998;9.116;2022-07-12T03:30:06;7.73;;;6.70;;
33327;SDS011;19692;52.998;9.116;2022-07-12T03:32:33;7.77;;;6.97;;
33327;SDS011;19692;52.998;9.116;2022-07-12T03:34:59;7.97;;;7.00;;
33327;SDS011;19692;52.998;9.116;2022-07-12T03:37:26;8.00;;;7.30;;
33327;SDS011;19692;52.998;9.116;2022-07-12T03:39:52;7.23;;;6.53;;
33327;SDS011;19692;52.998;9.116;2022-07-12T03:42:21;7.57;;;6.83;;
33327;SDS011;19692;52.998;9.116;2022-07-12T03:44:47;7.83;;;6.93;;
33327;SDS011;19692;52.998;9.116;2022-07-12T03:47:13;7.23;;;6.53;;
33327;SDS011;19692;52.998;9.116;2022-07-12T03:49:38;8.00;;;6.70;;
33327;SDS011;19692;52.998;9.116;2022-07-12T03:52:04;7.70;;;7.00;;
33327;SDS011;19692;52.998;9.116;2022-07-12T03:54:30;8.17;;;6.73;;
33327;SDS011;19692;52.998;9.116;2022-07-12T03:56:56;8.17;;;7.10;;
33327;SDS011;19692;52.998;9.116;2022-07-12T03:59:40;10.37;;;7.80;;
33327;SDS011;19692;52.998;9.116;2022-07-12T04:02:07;8.40;;;7.60;;
33327;SDS011;19692;52.998;9.116;2022-07-12T04:04:33;8.73;;;7.93;;
33327;SDS011;19692;52.998;9.116;2022-07-12T04:06:59;9.83;;;8.83;;
33327;SDS011;19692;52.998;9.116;2022-07-12T04:09:24;12.83;;;9.23;;
33327;SDS011;19692;52.998;9.116;2022-07-12T04:11:50;10.87;;;9.47;;
33327;SDS011;19692;52.998;9.116;2022-07-12T04:14:16;10.83;;;9.73;;
33327;SDS011;19692;52.998;9.116;2022-07-12T04:16:42;11.03;;;9.93;;
33327;SDS011;19692;52.998;9.116;2022-07-12T04:19:08;11.70;;;10.10;;
33327;SDS011;19692;52.998;9.116;2022-07-12T04:21:35;11.50;;;10.40;;
33327;SDS011;19692;52.998;9.116;2022-07-12T04:24:02;13.10;;;11.17;;
33327;SDS011;19692;52.998;9.116;2022-07-12T04:26:29;13.23;;;11.40;;
33327;SDS011;19692;52.998;9.116;2022-07-12T04:28:55;12.77;;;11.33;;
33327;SDS011;19692;52.998;9.116;2022-07-12T04:31:20;13.47;;;12.20;;
33327;SDS011;19692;52.998;9.116;2022-07-12T04:33:46;12.03;;;10.83;;
33327;SDS011;19692;52.998;9.116;2022-07-12T04:36:12;13.73;;;11.30;;
33327;SDS011;19692;52.998;9.116;2022-07-12T04:38:38;9.63;;;8.73;;
33327;SDS011;19692;52.998;9.116;2022-07-12T04:41:03;6.73;;;6.13;;
33327;SDS011;19692;52.998;9.116;2022-07-12T04:43:29;6.40;;;5.90;;
33327;SDS011;19692;52.998;9.116;2022-07-12T04:45:55;6.60;;;6.00;;
33327;SDS011;19692;52.998;9.116;2022-07-12T04:48:21;6.70;;;6.20;;
33327;SDS011;19692;52.998;9.116;2022-07-12T04:50:47;8.57;;;7.77;;
33327;SDS011;19692;52.998;9.116;2022-07-12T04:53:12;17.50;;;12.43;;
33327;SDS011;19692;52.998;9.116;2022-07-12T04:55:38;17.93;;;11.70;;
33327;SDS011;19692;52.998;9.116;2022-07-12T04:58:04;9.00;;;7.57;;
33327;SDS011;19692;52.998;9.116;2022-07-12T05:00:30;9.50;;;8.50;;
33327;SDS011;19692;52.998;9.116;2022-07-12T05:02:55;9.70;;;8.60;;
33327;SDS011;19692;52.998;9.116;2022-07-12T05:05:21;8.60;;;7.70;;
33327;SDS011;19692;52.998;9.116;2022-07-12T05:07:47;7.03;;;6.43;;
33327;SDS011;19692;52.998;9.116;2022-07-12T05:10:13;7.03;;;6.33;;
33327;SDS011;19692;52.998;9.116;2022-07-12T05:12:38;5.27;;;4.73;;
33327;SDS011;19692;52.998;9.116;2022-07-12T05:15:04;5.43;;;5.03;;
33327;SDS011;19692;52.998;9.116;2022-07-12T05:17:32;4.83;;;4.43;;
33327;SDS011;19692;52.998;9.116;2022-07-12T05:19:58;7.77;;;5.90;;
33327;SDS011;19692;52.998;9.116;2022-07-12T05:22:24;7.10;;;6.40;;
33327;SDS011;19692;52.998;9.116;2022-07-12T05:24:50;6.07;;;5.53;;
33327;SDS011;19692;52.998;9.116;2022-07-12T05:27:15;5.97;;;5.40;;
33327;SDS011;19692;52.998;9.116;2022-07-12T05:29:41;6.80;;;6.20;;
33327;SDS011;19692;52.998;9.116;2022-07-12T05:32:07;6.97;;;6.37;;
33327;SDS011;19692;52.998;9.116;2022-07-12T05:34:33;5.83;;;5.33;;
33327;SDS011;19692;52.998;9.116;2022-07-12T05:36:59;6.17;;;5.67;;
33327;SDS011;19692;52.998;9.116;2022-07-12T05:39:24;6.53;;;6.03;;
33327;SDS011;19692;52.998;9.116;2022-07-12T05:41:50;6.37;;;5.77;;
33327;SDS011;19692;52.998;9.116;2022-07-12T05:44:16;13.87;;;8.97;;
33327;SDS011;19692;52.998;9.116;2022-07-12T05:46:44;6.93;;;6.33;;
33327;SDS011;19692;52.998;9.116;2022-07-12T05:49:10;6.30;;;5.80;;
33327;SDS011;19692;52.998;9.116;2022-07-12T05:51:36;6.23;;;5.73;;
33327;SDS011;19692;52.998;9.116;2022-07-12T05:54:21;6.93;;;6.33;;
33327;SDS011;19692;52.998;9.116;2022-07-12T05:56:46;7.17;;;6.53;;
33327;SDS011;19692;52.998;9.116;2022-07-12T05:59:13;7.03;;;6.43;;
33327;SDS011;19692;52.998;9.116;2022-07-12T06:01:38;6.80;;;6.20;;
33327;SDS011;19692;52.998;9.116;2022-07-12T06:04:04;6.50;;;6.00;;
33327;SDS011;19692;52.998;9.116;2022-07-12T06:06:31;6.60;;;6.00;;
33327;SDS011;19692;52.998;9.116;2022-07-12T06:08:57;6.30;;;5.70;;
33327;SDS011;19692;52.998;9.116;2022-07-12T06:11:22;5.50;;;5.10;;
33327;SDS011;19692;52.998;9.116;2022-07-12T06:13:48;6.80;;;6.20;;
33327;SDS011;19692;52.998;9.116;2022-07-12T06:16:15;6.60;;;6.00;;
33327;SDS011;19692;52.998;9.116;2022-07-12T06:18:41;6.23;;;5.70;;
33327;SDS011;19692;52.998;9.116;2022-07-12T06:21:07;6.93;;;6.07;;
33327;SDS011;19692;52.998;9.116;2022-07-12T06:23:33;6.60;;;6.00;;
33327;SDS011;19692;52.998;9.116;2022-07-12T06:25:59;6.43;;;5.93;;
33327;SDS011;19692;52.998;9.116;2022-07-12T06:28:25;6.40;;;5.90;;
33327;SDS011;19692;52.998;9.116;2022-07-12T06:30:50;6.77;;;6.20;;
33327;SDS011;19692;52.998;9.116;2022-07-12T06:33:16;6.83;;;6.33;;
33327;SDS011;19692;52.998;9.116;2022-07-12T06:35:42;7.63;;;6.93;;
33327;SDS011;19692;52.998;9.116;2022-07-12T06:38:08;7.00;;;6.50;;
33327;SDS011;19692;52.998;9.116;2022-07-12T06:40:33;7.27;;;6.67;;
33327;SDS011;19692;52.998;9.116;2022-07-12T06:42:59;6.50;;;6.00;;
33327;SDS011;19692;52.998;9.116;2022-07-12T06:45:25;7.50;;;6.80;;
33327;SDS011;19692;52.998;9.116;2022-07-12T06:47:54;7.40;;;6.80;;
33327;SDS011;19692;52.998;9.116;2022-07-12T06:50:20;7.03;;;6.50;;
33327;SDS011;19692;52.998;9.116;2022-07-12T06:52:45;7.37;;;6.77;;
33327;SDS011;19692;52.998;9.116;2022-07-12T06:55:11;7.87;;;7.17;;
33327;SDS011;19692;52.998;9.116;2022-07-12T06:57:37;8.50;;;7.80;;
33327;SDS011;19692;52.998;9.116;2022-07-12T07:00:05;7.97;;;7.37;;
33327;SDS011;19692;52.998;9.116;2022-07-12T07:02:32;8.50;;;7.90;;
33327;SDS011;19692;52.998;9.116;2022-07-12T07:04:57;9.70;;;9.00;;
33327;SDS011;19692;52.998;9.116;2022-07-12T07:07:23;9.93;;;9.13;;
33327;SDS011;19692;52.998;9.116;2022-07-12T07:09:49;9.13;;;8.40;;
33327;SDS011;19692;52.998;9.116;2022-07-12T07:12:15;9.23;;;8.33;;
33327;SDS011;19692;52.998;9.116;2022-07-12T07:14:40;10.10;;;9.30;;
33327;SDS011;19692;52.998;9.116;2022-07-12T07:17:06;12.20;;;11.20;;
33327;SDS011;19692;52.998;9.116;2022-07-12T07:19:33;13.53;;;12.40;;
33327;SDS011;19692;52.998;9.116;2022-07-12T07:21:58;12.27;;;11.37;;
33327;SDS011;19692;52.998;9.116;2022-07-12T07:24:24;13.77;;;12.67;;
33327;SDS011;19692;52.998;9.116;2022-07-12T07:26:50;14.50;;;13.30;;
33327;SDS011;19692;52.998;9.116;2022-07-12T07:29:16;12.30;;;11.27;;
33327;SDS011;19692;52.998;9.116;2022-07-12T07:32:00;15.30;;;14.00;;
33327;SDS011;19692;52.998;9.116;2022-07-12T07:34:26;14.33;;;13.13;;
33327;SDS011;19692;52.998;9.116;2022-07-12T07:36:52;15.13;;;13.87;;
33327;SDS011;19692;52.998;9.116;2022-07-12T07:39:18;13.67;;;12.57;;
33327;SDS011;19692;52.998;9.116;2022-07-12T07:41:44;14.60;;;13.40;;
33327;SDS011;19692;52.998;9.116;2022-07-12T07:44:10;15.07;;;13.87;;
33327;SDS011;19692;52.998;9.116;2022-07-12T07:46:35;15.73;;;14.53;;
33327;SDS011;19692;52.998;9.116;2022-07-12T07:49:01;15.20;;;13.90;;
33327;SDS011;19692;52.998;9.116;2022-07-12T07:51:27;14.40;;;13.30;;
33327;SDS011;19692;52.998;9.116;2022-07-12T07:53:53;16.37;;;14.97;;
33327;SDS011;19692;52.998;9.116;2022-07-12T07:56:19;16.33;;;15.03;;
33327;SDS011;19692;52.998;9.116;2022-07-12T07:58:45;17.47;;;16.07;;
33327;SDS011;19692;52.998;9.116;2022-07-12T08:01:10;17.00;;;15.60;;
33327;SDS011;19692;52.998;9.116;2022-07-12T08:03:36;15.87;;;14.60;;
33327;SDS011;19692;52.998;9.116;2022-07-12T08:06:02;15.40;;;14.10;;
33327;SDS011;19692;52.998;9.116;2022-07-12T08:08:28;15.17;;;13.87;;
33327;SDS011;19692;52.998;9.116;2022-07-12T08:10:54;16.37;;;15.03;;
33327;SDS011;19692;52.998;9.116;2022-07-12T08:13:20;15.97;;;14.77;;
33327;SDS011;19692;52.998;9.116;2022-07-12T08:15:46;15.23;;;13.93;;
33327;SDS011;19692;52.998;9.116;2022-07-12T08:18:12;15.23;;;13.97;;
33327;SDS011;19692;52.998;9.116;2022-07-12T08:20:38;15.13;;;13.93;;
33327;SDS011;19692;52.998;9.116;2022-07-12T08:23:04;13.80;;;12.73;;
33327;SDS011;19692;52.998;9.116;2022-07-12T08:25:30;13.87;;;12.77;;
33327;SDS011;19692;52.998;9.116;2022-07-12T08:27:55;12.97;;;11.80;;
33327;SDS011;19692;52.998;9.116;2022-07-12T08:30:21;11.20;;;10.30;;
33327;SDS011;19692;52.998;9.116;2022-07-12T08:32:47;12.00;;;11.00;;
33327;SDS011;19692;52.998;9.116;2022-07-12T08:35:13;11.80;;;10.80;;
33327;SDS011;19692;52.998;9.116;2022-07-12T08:37:40;11.23;;;10.33;;
33327;SDS011;19692;52.998;9.116;2022-07-12T08:40:07;11.73;;;10.83;;
33327;SDS011;19692;52.998;9.116;2022-07-12T08:42:34;11.77;;;10.77;;
33327;SDS011;19692;52.998;9.116;2022-07-12T08:45:01;11.83;;;10.93;;
33327;SDS011;19692;52.998;9.116;2022-07-12T08:47:27;10.77;;;9.97;;
33327;SDS011;19692;52.998;9.116;2022-07-12T08:52:48;10.90;;;10.10;;
33327;SDS011;19692;52.998;9.116;2022-07-12T08:57:55;11.03;;;10.23;;
33327;SDS011;19692;52.998;9.116;2022-07-12T09:00:23;10.67;;;9.80;;
33327;SDS011;19692;52.998;9.116;2022-07-12T09:02:51;9.47;;;8.67;;
33327;SDS011;19692;52.998;9.116;2022-07-12T09:05:28;9.13;;;8.43;;
33327;SDS011;19692;52.998;9.116;2022-07-12T09:08:08;8.70;;;8.00;;
33327;SDS011;19692;52.998;9.116;2022-07-12T09:10:57;8.60;;;8.00;;
33327;SDS011;19692;52.998;9.116;2022-07-12T09:13:45;9.23;;;8.53;;
33327;SDS011;19692;52.998;9.116;2022-07-12T09:16:21;7.80;;;7.30;;
33327;SDS011;19692;52.998;9.116;2022-07-12T09:18:50;8.40;;;7.80;;
33327;SDS011;19692;52.998;9.116;2022-07-12T09:21:23;7.37;;;6.83;;
33327;SDS011;19692;52.998;9.116;2022-07-12T09:23:55;8.13;;;7.50;;
33327;SDS011;19692;52.998;9.116;2022-07-12T09:26:22;7.77;;;7.17;;
33327;SDS011;19692;52.998;9.116;2022-07-12T09:28:52;7.30;;;6.70;;
33327;SDS011;19692;52.998;9.116;2022-07-12T09:31:18;7.60;;;7.00;;
33327;SDS011;19692;52.998;9.116;2022-07-12T09:33:58;6.70;;;6.13;;
33327;SDS011;19692;52.998;9.116;2022-07-12T09:37:05;6.57;;;6.10;;
33327;SDS011;19692;52.998;9.116;2022-07-12T09:39:29;5.20;;;4.87;;
33327;SDS011;19692;52.998;9.116;2022-07-12T09:41:55;5.40;;;5.00;;
33327;SDS011;19692;52.998;9.116;2022-07-12T09:44:22;4.50;;;4.13;;
33327;SDS011;19692;52.998;9.116;2022-07-12T09:46:49;4.47;;;4.17;;
33327;SDS011;19692;52.998;9.116;2022-07-12T09:49:16;7.17;;;4.73;;
33327;SDS011;19692;52.998;9.116;2022-07-12T09:51:44;5.17;;;4.77;;
33327;SDS011;19692;52.998;9.116;2022-07-12T09:54:10;4.77;;;4.37;;
33327;SDS011;19692;52.998;9.116;2022-07-12T09:56:40;4.80;;;4.40;;
33327;SDS011;19692;52.998;9.116;2022-07-12T09:59:09;4.37;;;4.03;;
33327;SDS011;19692;52.998;9.116;2022-07-12T10:01:39;4.97;;;3.73;;
33327;SDS011;19692;52.998;9.116;2022-07-12T10:04:05;4.10;;;3.80;;
33327;SDS011;19692;52.998;9.116;2022-07-12T10:06:31;4.03;;;3.63;;
33327;SDS011;19692;52.998;9.116;2022-07-12T10:08:57;4.13;;;3.83;;
33327;SDS011;19692;52.998;9.116;2022-07-12T10:11:23;4.47;;;3.60;;
33327;SDS011;19692;52.998;9.116;2022-07-12T10:13:50;4.53;;;4.13;;
33327;SDS011;19692;52.998;9.116;2022-07-12T10:16:18;4.17;;;3.87;;
33327;SDS011;19692;52.998;9.116;2022-07-12T10:21:50;3.33;;;3.03;;
33327;SDS011;19692;52.998;9.116;2022-07-12T10:24:44;3.67;;;3.30;;
33327;SDS011;19692;52.998;9.116;2022-07-12T10:29:43;3.77;;;3.47;;
33327;SDS011;19692;52.998;9.116;2022-07-12T10:35:02;3.63;;;3.33;;
33327;SDS011;19692;52.998;9.116;2022-07-12T10:37:31;3.10;;;2.80;;
33327;SDS011;19692;52.998;9.116;2022-07-12T10:45:34;3.30;;;3.00;;
33327;SDS011;19692;52.998;9.116;2022-07-12T10:48:05;3.30;;;3.10;;
33327;SDS011;19692;52.998;9.116;2022-07-12T10:58:30;2.70;;;2.50;;
33327;SDS011;19692;52.998;9.116;2022-07-12T11:00:57;2.70;;;2.50;;
33327;SDS011;19692;52.998;9.116;2022-07-12T11:03:30;3.53;;;2.30;;
33327;SDS011;19692;52.998;9.116;2022-07-12T11:06:08;2.70;;;2.50;;
33327;SDS011;19692;52.998;9.116;2022-07-12T11:08:56;2.23;;;2.03;;
33327;SDS011;19692;52.998;9.116;2022-07-12T11:11:28;2.67;;;2.30;;
33327;SDS011;19692;52.998;9.116;2022-07-12T11:13:59;2.87;;;2.37;;
33327;SDS011;19692;52.998;9.116;2022-07-12T11:16:27;3.80;;;2.37;;
33327;SDS011;19692;52.998;9.116;2022-07-12T11:18:54;2.80;;;2.60;;
33327;SDS011;19692;52.998;9.116;2022-07-12T11:21:20;2.93;;;2.70;;
33327;SDS011;19692;52.998;9.116;2022-07-12T11:23:48;3.47;;;2.80;;
33327;SDS011;19692;52.998;9.116;2022-07-12T11:26:15;2.73;;;2.53;;
33327;SDS011;19692;52.998;9.116;2022-07-12T11:28:42;3.20;;;2.13;;
33327;SDS011;19692;52.998;9.116;2022-07-12T11:31:13;2.53;;;2.30;;
33327;SDS011;19692;52.998;9.116;2022-07-12T11:33:43;3.17;;;2.27;;
33327;SDS011;19692;52.998;9.116;2022-07-12T11:36:14;2.77;;;2.57;;
33327;SDS011;19692;52.998;9.116;2022-07-12T11:38:41;2.93;;;2.50;;
33327;SDS011;19692;52.998;9.116;2022-07-12T11:41:10;3.70;;;2.30;;
33327;SDS011;19692;52.998;9.116;2022-07-12T11:43:38;2.97;;;2.10;;
33327;SDS011;19692;52.998;9.116;2022-07-12T11:46:04;2.30;;;2.10;;
33327;SDS011;19692;52.998;9.116;2022-07-12T11:48:31;2.27;;;2.13;;
33327;SDS011;19692;52.998;9.116;2022-07-12T11:51:00;2.40;;;2.20;;
33327;SDS011;19692;52.998;9.116;2022-07-12T11:53:29;2.90;;;2.60;;
33327;SDS011;19692;52.998;9.116;2022-07-12T11:55:56;3.17;;;1.93;;
33327;SDS011;19692;52.998;9.116;2022-07-12T11:58:25;3.10;;;2.07;;
33327;SDS011;19692;52.998;9.116;2022-07-12T12:00:53;3.17;;;2.10;;
33327;SDS011;19692;52.998;9.116;2022-07-12T12:03:20;3.47;;;1.90;;
33327;SDS011;19692;52.998;9.116;2022-07-12T12:05:47;2.60;;;1.90;;
33327;SDS011;19692;52.998;9.116;2022-07-12T12:08:18;4.00;;;2.40;;
33327;SDS011;19692;52.998;9.116;2022-07-12T12:10:52;2.10;;;1.93;;
33327;SDS011;19692;52.998;9.116;2022-07-12T12:13:23;5.03;;;2.03;;
33327;SDS011;19692;52.998;9.116;2022-07-12T12:15:52;4.03;;;1.80;;
33327;SDS011;19692;52.998;9.116;2022-07-12T12:18:37;2.20;;;2.00;;
33327;SDS011;19692;52.998;9.116;2022-07-12T12:21:09;2.40;;;1.80;;
33327;SDS011;19692;52.998;9.116;2022-07-12T12:23:37;2.00;;;1.90;;
33327;SDS011;19692;52.998;9.116;2022-07-12T12:26:18;2.13;;;2.03;;
33327;SDS011;19692;52.998;9.116;2022-07-12T12:28:50;2.43;;;1.93;;
33327;SDS011;19692;52.998;9.116;2022-07-12T12:31:18;2.70;;;1.90;;
33327;SDS011;19692;52.998;9.116;2022-07-12T12:33:46;1.60;;;1.50;;
33327;SDS011;19692;52.998;9.116;2022-07-12T12:36:21;1.70;;;1.60;;
33327;SDS011;19692;52.998;9.116;2022-07-12T12:38:47;2.50;;;1.57;;
33327;SDS011;19692;52.998;9.116;2022-07-12T12:41:15;1.70;;;1.60;;
33327;SDS011;19692;52.998;9.116;2022-07-12T12:43:42;1.90;;;1.60;;
33327;SDS011;19692;52.998;9.116;2022-07-12T12:46:08;1.90;;;1.80;;
33327;SDS011;19692;52.998;9.116;2022-07-12T12:48:35;2.10;;;1.90;;
33327;SDS011;19692;52.998;9.116;2022-07-12T12:51:05;1.97;;;1.70;;
33327;SDS011;19692;52.998;9.116;2022-07-12T12:53:36;2.50;;;1.90;;
33327;SDS011;19692;52.998;9.116;2022-07-12T12:56:13;2.67;;;2.10;;
33327;SDS011;19692;52.998;9.116;2022-07-12T12:58:39;2.63;;;1.60;;
33327;SDS011;19692;52.998;9.116;2022-07-12T13:01:07;3.10;;;2.00;;
33327;SDS011;19692;52.998;9.116;2022-07-12T13:03:33;2.20;;;1.80;;
33327;SDS011;19692;52.998;9.116;2022-07-12T13:06:00;2.30;;;1.50;;
33327;SDS011;19692;52.998;9.116;2022-07-12T13:08:27;1.70;;;1.60;;
33327;SDS011;19692;52.998;9.116;2022-07-12T13:10:53;1.90;;;1.80;;
33327;SDS011;19692;52.998;9.116;2022-07-12T13:13:38;4.90;;;1.80;;
33327;SDS011;19692;52.998;9.116;2022-07-12T13:16:05;2.30;;;2.10;;
33327;SDS011;19692;52.998;9.116;2022-07-12T13:18:31;3.00;;;1.83;;
33327;SDS011;19692;52.998;9.116;2022-07-12T13:20:58;1.73;;;1.63;;
33327;SDS011;19692;52.998;9.116;2022-07-12T13:23:23;1.77;;;1.67;;
33327;SDS011;19692;52.998;9.116;2022-07-12T13:25:50;2.33;;;1.70;;
33327;SDS011;19692;52.998;9.116;2022-07-12T13:34:22;3.20;;;1.90;;
33327;SDS011;19692;52.998;9.116;2022-07-12T13:36:48;1.70;;;1.60;;
33327;SDS011;19692;52.998;9.116;2022-07-12T13:39:13;2.43;;;2.23;;
33327;SDS011;19692;52.998;9.116;2022-07-12T13:41:57;1.83;;;1.73;;
33327;SDS011;19692;52.998;9.116;2022-07-12T13:44:23;3.60;;;2.10;;
33327;SDS011;19692;52.998;9.116;2022-07-12T13:46:49;2.60;;;1.90;;
33327;SDS011;19692;52.998;9.116;2022-07-12T13:49:15;2.40;;;1.63;;
33327;SDS011;19692;52.998;9.116;2022-07-12T13:51:41;2.93;;;1.90;;
33327;SDS011;19692;52.998;9.116;2022-07-12T13:54:06;3.00;;;2.00;;
33327;SDS011;19692;52.998;9.116;2022-07-12T13:56:32;2.87;;;1.93;;
33327;SDS011;19692;52.998;9.116;2022-07-12T13:58:58;3.00;;;2.10;;
33327;SDS011;19692;52.998;9.116;2022-07-12T14:01:24;3.17;;;2.70;;
33327;SDS011;19692;52.998;9.116;2022-07-12T14:03:50;2.93;;;2.47;;
33327;SDS011;19692;52.998;9.116;2022-07-12T14:06:15;3.63;;;2.30;;
33327;SDS011;19692;52.998;9.116;2022-07-12T14:08:41;3.33;;;2.20;;
33327;SDS011;19692;52.998;9.116;2022-07-12T14:11:07;4.20;;;3.80;;
33327;SDS011;19692;52.998;9.116;2022-07-12T14:13:32;4.20;;;3.40;;
33327;SDS011;19692;52.998;9.116;2022-07-12T14:15:58;6.07;;;3.80;;
33327;SDS011;19692;52.998;9.116;2022-07-12T14:18:24;5.60;;;4.50;;
33327;SDS011;19692;52.998;9.116;2022-07-12T14:20:50;5.20;;;4.57;;
33327;SDS011;19692;52.998;9.116;2022-07-12T14:23:16;6.23;;;4.73;;
33327;SDS011;19692;52.998;9.116;2022-07-12T14:25:42;6.77;;;6.23;;
33327;SDS011;19692;52.998;9.116;2022-07-12T14:28:07;6.60;;;5.90;;
33327;SDS011;19692;52.998;9.116;2022-07-12T14:30:33;6.00;;;5.50;;
33327;SDS011;19692;52.998;9.116;2022-07-12T14:33:00;6.23;;;5.40;;
33327;SDS011;19692;52.998;9.116;2022-07-12T14:35:25;5.80;;;5.30;;
33327;SDS011;19692;52.998;9.116;2022-07-12T14:37:51;3.47;;;3.10;;
33327;SDS011;19692;52.998;9.116;2022-07-12T14:40:17;5.17;;;3.47;;
33327;SDS011;19692;52.998;9.116;2022-07-12T14:42:42;5.67;;;3.70;;
33327;SDS011;19692;52.998;9.116;2022-07-12T14:45:09;7.27;;;6.57;;
33327;SDS011;19692;52.998;9.116;2022-07-12T14:47:35;7.53;;;6.77;;
33327;SDS011;19692;52.998;9.116;2022-07-12T14:50:00;6.47;;;5.70;;
33327;SDS011;19692;52.998;9.116;2022-07-12T14:52:31;6.27;;;5.60;;
33327;SDS011;19692;52.998;9.116;2022-07-12T14:54:57;4.60;;;3.93;;
33327;SDS011;19692;52.998;9.116;2022-07-12T14:57:23;3.70;;;3.40;;
33327;SDS011;19692;52.998;9.116;2022-07-12T14:59:48;6.57;;;5.13;;
33327;SDS011;19692;52.998;9.116;2022-07-12T15:02:14;5.10;;;4.70;;
33327;SDS011;19692;52.998;9.116;2022-07-12T15:04:42;4.40;;;4.00;;
33327;SDS011;19692;52.998;9.116;2022-07-12T15:07:07;4.23;;;3.57;;
33327;SDS011;19692;52.998;9.116;2022-07-12T15:09:33;6.13;;;4.67;;
33327;SDS011;19692;52.998;9.116;2022-07-12T15:12:00;5.37;;;3.87;;
33327;SDS011;19692;52.998;9.116;2022-07-12T15:14:26;6.00;;;4.30;;
33327;SDS011;19692;52.998;9.116;2022-07-12T15:16:52;7.77;;;4.60;;
33327;SDS011;19692;52.998;9.116;2022-07-12T15:19:18;7.13;;;4.33;;